sensor_id;sensor_type;location;lat;lon;timestamp;temperature;humidity
11597;DHT22;5854;48.072;16.286;2022-12-29T00:01:42;1.20;84.50
11597;DHT22;5854;48.072;16.286;2022-12-29T00:04:13;1.20;84.50
11597;DHT22;5854;48.072;16.286;2022-12-29T00:06:40;1.00;79.70
11597;DHT22;5854;48.072;16.286;2022-12-29T00:09:08;1.00;83.30
11597;DHT22;5854;48.072;16.286;2022-12-29T00:11:37;0.90;79.00
11597;DHT22;5854;48.072;16.286;2022-12-29T00:14:04;0.90;82.80
11597;DHT22;5854;48.072;16.286;2022-12-29T00:16:48;1.00;84.50
11597;DHT22;5854;48.072;16.286;2022-12-29T00:19:17;1.10;85.10
11597;DHT22;5854;48.072;16.286;2022-12-29T00:22:01;1.00;83.70
11597;DHT22;5854;48.072;16.286;2022-12-29T00:24:46;0.90;78.00
11597;DHT22;5854;48.072;16.286;2022-12-29T00:27:31;0.90;82.30
11597;DHT22;5854;48.072;16.286;2022-12-29T00:30:19;1.00;81.20
11597;DHT22;5854;48.072;16.286;2022-12-29T00:33:09;0.90;80.60
11597;DHT22;5854;48.072;16.286;2022-12-29T00:35:57;0.90;82.20
11597;DHT22;5854;48.072;16.286;2022-12-29T00:38:28;0.70;77.90
11597;DHT22;5854;48.072;16.286;2022-12-29T00:41:13;0.80;82.40
11597;DHT22;5854;48.072;16.286;2022-12-29T00:43:58;0.80;83.70
11597;DHT22;5854;48.072;16.286;2022-12-29T00:46:36;0.80;82.20
11597;DHT22;5854;48.072;16.286;2022-12-29T00:49:04;0.80;84.70
11597;DHT22;5854;48.072;16.286;2022-12-29T00:51:51;0.80;82.20
11597;DHT22;5854;48.072;16.286;2022-12-29T00:54:19;0.90;83.70
11597;DHT22;5854;48.072;16.286;2022-12-29T00:56:46;0.80;82.50
11597;DHT22;5854;48.072;16.286;2022-12-29T00:59:14;0.70;77.80
11597;DHT22;5854;48.072;16.286;2022-12-29T01:01:42;0.70;80.00
11597;DHT22;5854;48.072;16.286;2022-12-29T01:04:10;0.70;81.00
11597;DHT22;5854;48.072;16.286;2022-12-29T01:06:39;0.70;82.90
11597;DHT22;5854;48.072;16.286;2022-12-29T01:09:09;0.80;84.20
11597;DHT22;5854;48.072;16.286;2022-12-29T01:11:53;0.80;83.80
11597;DHT22;5854;48.072;16.286;2022-12-29T01:14:21;0.80;83.90
11597;DHT22;5854;48.072;16.286;2022-12-29T01:16:49;0.80;84.10
11597;DHT22;5854;48.072;16.286;2022-12-29T01:19:17;0.70;80.00
11597;DHT22;5854;48.072;16.286;2022-12-29T01:21:45;0.70;80.40
11597;DHT22;5854;48.072;16.286;2022-12-29T01:24:14;0.70;83.60
11597;DHT22;5854;48.072;16.286;2022-12-29T01:26:41;0.70;83.60
11597;DHT22;5854;48.072;16.286;2022-12-29T01:29:09;0.80;84.50
11597;DHT22;5854;48.072;16.286;2022-12-29T01:31:36;0.70;80.60
11597;DHT22;5854;48.072;16.286;2022-12-29T01:34:03;0.60;79.00
11597;DHT22;5854;48.072;16.286;2022-12-29T01:36:31;0.50;79.60
11597;DHT22;5854;48.072;16.286;2022-12-29T01:38:58;0.50;80.50
11597;DHT22;5854;48.072;16.286;2022-12-29T01:41:27;0.50;82.50
11597;DHT22;5854;48.072;16.286;2022-12-29T01:43:55;0.60;83.60
11597;DHT22;5854;48.072;16.286;2022-12-29T01:46:27;0.50;82.40
11597;DHT22;5854;48.072;16.286;2022-12-29T01:49:02;0.50;83.40
11597;DHT22;5854;48.072;16.286;2022-12-29T01:51:33;0.60;84.50
11597;DHT22;5854;48.072;16.286;2022-12-29T01:54:06;0.50;81.30
11597;DHT22;5854;48.072;16.286;2022-12-29T01:56:37;0.50;81.60
11597;DHT22;5854;48.072;16.286;2022-12-29T01:59:09;0.50;83.20
11597;DHT22;5854;48.072;16.286;2022-12-29T02:01:40;0.50;84.40
11597;DHT22;5854;48.072;16.286;2022-12-29T02:04:09;0.60;85.00
11597;DHT22;5854;48.072;16.286;2022-12-29T02:06:41;0.60;84.70
11597;DHT22;5854;48.072;16.286;2022-12-29T02:09:12;0.60;84.90
11597;DHT22;5854;48.072;16.286;2022-12-29T02:11:40;0.60;82.70
11597;DHT22;5854;48.072;16.286;2022-12-29T02:14:09;0.40;79.60
11597;DHT22;5854;48.072;16.286;2022-12-29T02:16:49;0.50;83.20
11597;DHT22;5854;48.072;16.286;2022-12-29T02:19:55;0.60;84.30
11597;DHT22;5854;48.072;16.286;2022-12-29T02:22:43;0.60;84.10
11597;DHT22;5854;48.072;16.286;2022-12-29T02:25:39;0.60;84.20
11597;DHT22;5854;48.072;16.286;2022-12-29T02:28:39;0.60;81.80
11597;DHT22;5854;48.072;16.286;2022-12-29T02:31:20;0.40;77.20
11597;DHT22;5854;48.072;16.286;2022-12-29T02:34:00;0.30;79.50
11597;DHT22;5854;48.072;16.286;2022-12-29T02:36:40;0.30;79.90
11597;DHT22;5854;48.072;16.286;2022-12-29T02:39:14;0.30;80.30
11597;DHT22;5854;48.072;16.286;2022-12-29T02:41:55;0.40;83.80
11597;DHT22;5854;48.072;16.286;2022-12-29T02:44:30;0.40;84.20
11597;DHT22;5854;48.072;16.286;2022-12-29T02:47:08;0.40;81.00
11597;DHT22;5854;48.072;16.286;2022-12-29T02:49:42;0.40;82.00
11597;DHT22;5854;48.072;16.286;2022-12-29T02:52:16;0.40;83.80
11597;DHT22;5854;48.072;16.286;2022-12-29T02:54:45;0.30;82.00
11597;DHT22;5854;48.072;16.286;2022-12-29T02:57:26;0.30;79.90
11597;DHT22;5854;48.072;16.286;2022-12-29T02:59:58;0.30;82.50
11597;DHT22;5854;48.072;16.286;2022-12-29T03:02:41;0.30;83.80
11597;DHT22;5854;48.072;16.286;2022-12-29T03:05:37;0.30;81.00
11597;DHT22;5854;48.072;16.286;2022-12-29T03:08:19;0.30;80.60
11597;DHT22;5854;48.072;16.286;2022-12-29T03:10:57;0.30;82.90
11597;DHT22;5854;48.072;16.286;2022-12-29T03:13:29;0.30;83.60
11597;DHT22;5854;48.072;16.286;2022-12-29T03:16:23;0.30;83.60
11597;DHT22;5854;48.072;16.286;2022-12-29T03:19:00;0.30;83.40
11597;DHT22;5854;48.072;16.286;2022-12-29T03:21:32;0.30;83.80
11597;DHT22;5854;48.072;16.286;2022-12-29T03:24:22;0.30;81.00
11597;DHT22;5854;48.072;16.286;2022-12-29T03:26:50;0.10;80.60
11597;DHT22;5854;48.072;16.286;2022-12-29T03:29:20;0.20;82.00
11597;DHT22;5854;48.072;16.286;2022-12-29T03:31:48;0.20;81.30
11597;DHT22;5854;48.072;16.286;2022-12-29T03:34:20;0.20;83.30
11597;DHT22;5854;48.072;16.286;2022-12-29T03:36:50;0.20;81.50
11597;DHT22;5854;48.072;16.286;2022-12-29T03:39:20;0.20;82.90
11597;DHT22;5854;48.072;16.286;2022-12-29T03:41:50;0.20;83.60
11597;DHT22;5854;48.072;16.286;2022-12-29T03:44:22;0.20;80.30
11597;DHT22;5854;48.072;16.286;2022-12-29T03:46:58;0.10;82.30
11597;DHT22;5854;48.072;16.286;2022-12-29T03:49:26;0.20;83.40
11597;DHT22;5854;48.072;16.286;2022-12-29T03:51:53;0.20;81.30
11597;DHT22;5854;48.072;16.286;2022-12-29T03:54:21;0.00;78.40
11597;DHT22;5854;48.072;16.286;2022-12-29T03:56:48;0.10;83.20
11597;DHT22;5854;48.072;16.286;2022-12-29T03:59:15;0.20;84.10
11597;DHT22;5854;48.072;16.286;2022-12-29T04:01:42;0.20;82.80
11597;DHT22;5854;48.072;16.286;2022-12-29T04:04:09;0.10;82.70
11597;DHT22;5854;48.072;16.286;2022-12-29T04:06:38;0.10;83.00
11597;DHT22;5854;48.072;16.286;2022-12-29T04:09:05;0.10;81.70
11597;DHT22;5854;48.072;16.286;2022-12-29T04:11:32;0.10;83.10
11597;DHT22;5854;48.072;16.286;2022-12-29T04:13:59;0.20;84.10
11597;DHT22;5854;48.072;16.286;2022-12-29T04:16:26;0.20;84.30
11597;DHT22;5854;48.072;16.286;2022-12-29T04:18:53;0.20;84.00
11597;DHT22;5854;48.072;16.286;2022-12-29T04:21:20;0.20;84.00
11597;DHT22;5854;48.072;16.286;2022-12-29T04:23:49;0.20;82.90
11597;DHT22;5854;48.072;16.286;2022-12-29T04:26:16;0.10;80.50
11597;DHT22;5854;48.072;16.286;2022-12-29T04:28:43;0.10;82.90
11597;DHT22;5854;48.072;16.286;2022-12-29T04:31:10;0.20;83.60
11597;DHT22;5854;48.072;16.286;2022-12-29T04:33:37;0.10;79.20
11597;DHT22;5854;48.072;16.286;2022-12-29T04:36:04;0.10;82.00
11597;DHT22;5854;48.072;16.286;2022-12-29T04:38:32;0.10;83.20
11597;DHT22;5854;48.072;16.286;2022-12-29T04:41:01;0.10;83.30
11597;DHT22;5854;48.072;16.286;2022-12-29T04:43:28;0.10;83.70
11597;DHT22;5854;48.072;16.286;2022-12-29T04:45:55;0.10;83.80
11597;DHT22;5854;48.072;16.286;2022-12-29T04:48:22;0.00;80.20
11597;DHT22;5854;48.072;16.286;2022-12-29T04:50:49;0.00;79.70
11597;DHT22;5854;48.072;16.286;2022-12-29T04:53:17;0.00;80.80
11597;DHT22;5854;48.072;16.286;2022-12-29T04:55:48;-0.10;79.90
11597;DHT22;5854;48.072;16.286;2022-12-29T04:58:17;-0.10;82.30
11597;DHT22;5854;48.072;16.286;2022-12-29T05:00:44;0.00;83.10
11597;DHT22;5854;48.072;16.286;2022-12-29T05:03:11;-0.10;79.30
11597;DHT22;5854;48.072;16.286;2022-12-29T05:05:38;-0.20;81.00
11597;DHT22;5854;48.072;16.286;2022-12-29T05:08:05;-0.20;80.30
11597;DHT22;5854;48.072;16.286;2022-12-29T05:10:32;-0.10;83.30
11597;DHT22;5854;48.072;16.286;2022-12-29T05:12:59;-0.10;81.00
11597;DHT22;5854;48.072;16.286;2022-12-29T05:15:28;-0.10;82.50
11597;DHT22;5854;48.072;16.286;2022-12-29T05:17:55;-0.10;82.70
11597;DHT22;5854;48.072;16.286;2022-12-29T05:20:22;-0.10;81.60
11597;DHT22;5854;48.072;16.286;2022-12-29T05:22:49;-0.10;82.60
11597;DHT22;5854;48.072;16.286;2022-12-29T05:25:16;-0.10;82.80
11597;DHT22;5854;48.072;16.286;2022-12-29T05:27:43;-0.10;83.10
11597;DHT22;5854;48.072;16.286;2022-12-29T05:30:11;-0.10;80.10
11597;DHT22;5854;48.072;16.286;2022-12-29T05:32:40;-0.30;78.30
11597;DHT22;5854;48.072;16.286;2022-12-29T05:35:08;-0.20;81.80
11597;DHT22;5854;48.072;16.286;2022-12-29T05:37:36;-0.20;82.90
11597;DHT22;5854;48.072;16.286;2022-12-29T05:40:04;-0.10;82.70
11597;DHT22;5854;48.072;16.286;2022-12-29T05:42:33;-0.20;83.00
11597;DHT22;5854;48.072;16.286;2022-12-29T05:45:00;-0.20;81.20
11597;DHT22;5854;48.072;16.286;2022-12-29T05:47:27;-0.20;82.50
11597;DHT22;5854;48.072;16.286;2022-12-29T05:49:56;-0.20;81.20
11597;DHT22;5854;48.072;16.286;2022-12-29T05:52:23;-0.20;83.10
11597;DHT22;5854;48.072;16.286;2022-12-29T05:54:50;-0.20;82.00
11597;DHT22;5854;48.072;16.286;2022-12-29T05:57:18;-0.20;81.70
11597;DHT22;5854;48.072;16.286;2022-12-29T05:59:45;-0.30;79.00
11597;DHT22;5854;48.072;16.286;2022-12-29T06:02:12;-0.30;81.00
11597;DHT22;5854;48.072;16.286;2022-12-29T06:04:39;-0.30;80.10
11597;DHT22;5854;48.072;16.286;2022-12-29T06:07:07;-0.30;81.00
11597;DHT22;5854;48.072;16.286;2022-12-29T06:09:34;-0.30;82.00
11597;DHT22;5854;48.072;16.286;2022-12-29T06:12:02;-0.40;80.40
11597;DHT22;5854;48.072;16.286;2022-12-29T06:14:30;-0.40;82.50
11597;DHT22;5854;48.072;16.286;2022-12-29T06:16:58;-0.30;83.20
11597;DHT22;5854;48.072;16.286;2022-12-29T06:19:26;-0.30;81.80
11597;DHT22;5854;48.072;16.286;2022-12-29T06:21:53;-0.40;78.60
11597;DHT22;5854;48.072;16.286;2022-12-29T06:24:22;-0.40;82.20
11597;DHT22;5854;48.072;16.286;2022-12-29T06:26:49;-0.30;83.30
11597;DHT22;5854;48.072;16.286;2022-12-29T06:29:16;-0.40;80.30
11597;DHT22;5854;48.072;16.286;2022-12-29T06:31:43;-0.30;81.10
11597;DHT22;5854;48.072;16.286;2022-12-29T06:34:11;-0.40;81.10
11597;DHT22;5854;48.072;16.286;2022-12-29T06:36:38;-0.40;80.30
11597;DHT22;5854;48.072;16.286;2022-12-29T06:39:06;-0.50;79.00
11597;DHT22;5854;48.072;16.286;2022-12-29T06:41:34;-0.50;80.60
11597;DHT22;5854;48.072;16.286;2022-12-29T06:44:01;-0.60;79.20
11597;DHT22;5854;48.072;16.286;2022-12-29T06:46:28;-0.60;80.40
11597;DHT22;5854;48.072;16.286;2022-12-29T06:48:55;-0.80;82.50
11597;DHT22;5854;48.072;16.286;2022-12-29T06:51:23;-0.90;82.70
11597;DHT22;5854;48.072;16.286;2022-12-29T06:53:50;-0.80;85.20
11597;DHT22;5854;48.072;16.286;2022-12-29T06:56:17;-0.80;85.10
11597;DHT22;5854;48.072;16.286;2022-12-29T07:01:17;-0.70;85.20
11597;DHT22;5854;48.072;16.286;2022-12-29T07:03:44;-0.80;85.90
11597;DHT22;5854;48.072;16.286;2022-12-29T07:06:13;-0.90;87.80
11597;DHT22;5854;48.072;16.286;2022-12-29T07:11:12;-1.00;91.10
11597;DHT22;5854;48.072;16.286;2022-12-29T07:13:39;-0.90;92.20
11597;DHT22;5854;48.072;16.286;2022-12-29T07:16:07;-0.90;92.00
11597;DHT22;5854;48.072;16.286;2022-12-29T07:18:36;-0.80;92.20
11597;DHT22;5854;48.072;16.286;2022-12-29T07:21:03;-0.70;92.40
11597;DHT22;5854;48.072;16.286;2022-12-29T07:23:31;-0.70;93.10
11597;DHT22;5854;48.072;16.286;2022-12-29T07:26:02;-0.60;93.20
11597;DHT22;5854;48.072;16.286;2022-12-29T07:28:29;-0.50;93.10
11597;DHT22;5854;48.072;16.286;2022-12-29T07:30:58;-0.40;92.60
11597;DHT22;5854;48.072;16.286;2022-12-29T07:33:25;-0.40;92.40
11597;DHT22;5854;48.072;16.286;2022-12-29T07:35:56;-0.30;92.10
11597;DHT22;5854;48.072;16.286;2022-12-29T07:38:26;-0.20;91.70
11597;DHT22;5854;48.072;16.286;2022-12-29T07:40:59;-0.20;93.00
11597;DHT22;5854;48.072;16.286;2022-12-29T07:43:26;-0.20;93.00
11597;DHT22;5854;48.072;16.286;2022-12-29T07:45:53;-0.20;94.20
11597;DHT22;5854;48.072;16.286;2022-12-29T07:48:20;-0.30;96.30
11597;DHT22;5854;48.072;16.286;2022-12-29T07:50:49;-0.30;97.80
11597;DHT22;5854;48.072;16.286;2022-12-29T07:53:18;-0.30;98.80
11597;DHT22;5854;48.072;16.286;2022-12-29T07:55:45;-0.30;99.10
11597;DHT22;5854;48.072;16.286;2022-12-29T07:58:14;-0.20;98.60
11597;DHT22;5854;48.072;16.286;2022-12-29T08:00:41;0.00;98.70
11597;DHT22;5854;48.072;16.286;2022-12-29T08:03:11;0.00;98.40
11597;DHT22;5854;48.072;16.286;2022-12-29T08:05:39;-0.10;99.60
11597;DHT22;5854;48.072;16.286;2022-12-29T08:08:06;-0.10;99.50
11597;DHT22;5854;48.072;16.286;2022-12-29T08:10:35;-0.10;99.00
11597;DHT22;5854;48.072;16.286;2022-12-29T08:13:02;-0.20;98.90
11597;DHT22;5854;48.072;16.286;2022-12-29T08:15:29;-0.20;98.60
11597;DHT22;5854;48.072;16.286;2022-12-29T08:17:59;-0.20;97.50
11597;DHT22;5854;48.072;16.286;2022-12-29T08:20:27;-0.30;97.30
11597;DHT22;5854;48.072;16.286;2022-12-29T08:22:54;-0.20;97.20
11597;DHT22;5854;48.072;16.286;2022-12-29T08:25:22;-0.10;96.20
11597;DHT22;5854;48.072;16.286;2022-12-29T08:27:52;0.00;96.00
11597;DHT22;5854;48.072;16.286;2022-12-29T08:30:19;0.10;94.50
11597;DHT22;5854;48.072;16.286;2022-12-29T08:32:46;0.20;91.50
11597;DHT22;5854;48.072;16.286;2022-12-29T08:35:13;0.30;90.30
11597;DHT22;5854;48.072;16.286;2022-12-29T08:37:41;0.30;88.50
11597;DHT22;5854;48.072;16.286;2022-12-29T08:40:09;0.20;89.50
11597;DHT22;5854;48.072;16.286;2022-12-29T08:42:37;0.20;90.90
11597;DHT22;5854;48.072;16.286;2022-12-29T08:45:07;0.30;90.70
11597;DHT22;5854;48.072;16.286;2022-12-29T08:47:35;0.30;90.00
11597;DHT22;5854;48.072;16.286;2022-12-29T08:50:02;0.30;89.90
11597;DHT22;5854;48.072;16.286;2022-12-29T08:52:30;0.10;91.60
11597;DHT22;5854;48.072;16.286;2022-12-29T08:54:57;0.00;93.50
11597;DHT22;5854;48.072;16.286;2022-12-29T08:57:24;0.00;94.40
11597;DHT22;5854;48.072;16.286;2022-12-29T08:59:51;-0.20;95.20
11597;DHT22;5854;48.072;16.286;2022-12-29T09:02:20;-0.20;96.40
11597;DHT22;5854;48.072;16.286;2022-12-29T09:04:47;-0.30;97.40
11597;DHT22;5854;48.072;16.286;2022-12-29T09:07:14;-0.30;99.10
11597;DHT22;5854;48.072;16.286;2022-12-29T09:09:41;-0.40;98.20
11597;DHT22;5854;48.072;16.286;2022-12-29T09:12:09;-0.50;98.70
11597;DHT22;5854;48.072;16.286;2022-12-29T09:14:36;-0.40;99.50
11597;DHT22;5854;48.072;16.286;2022-12-29T09:17:03;-0.40;99.80
11597;DHT22;5854;48.072;16.286;2022-12-29T09:19:49;-0.30;99.40
11597;DHT22;5854;48.072;16.286;2022-12-29T09:22:17;-0.30;98.30
11597;DHT22;5854;48.072;16.286;2022-12-29T09:24:44;-0.50;99.10
11597;DHT22;5854;48.072;16.286;2022-12-29T09:27:11;-0.50;99.90
11597;DHT22;5854;48.072;16.286;2022-12-29T09:29:38;-0.30;99.90
11597;DHT22;5854;48.072;16.286;2022-12-29T09:32:06;-0.40;99.90
11597;DHT22;5854;48.072;16.286;2022-12-29T09:34:34;-0.40;99.90
11597;DHT22;5854;48.072;16.286;2022-12-29T09:37:02;-0.40;99.90
11597;DHT22;5854;48.072;16.286;2022-12-29T09:39:30;-0.30;99.90
11597;DHT22;5854;48.072;16.286;2022-12-29T09:42:04;-0.40;99.90
11597;DHT22;5854;48.072;16.286;2022-12-29T09:44:45;-0.50;99.90
11597;DHT22;5854;48.072;16.286;2022-12-29T09:47:19;-0.60;99.90
11597;DHT22;5854;48.072;16.286;2022-12-29T09:49:49;-0.40;99.90
11597;DHT22;5854;48.072;16.286;2022-12-29T09:52:23;-0.30;99.90
11597;DHT22;5854;48.072;16.286;2022-12-29T09:54:57;-0.20;99.90
11597;DHT22;5854;48.072;16.286;2022-12-29T09:57:29;-0.10;99.90
11597;DHT22;5854;48.072;16.286;2022-12-29T10:00:03;-0.10;99.90
11597;DHT22;5854;48.072;16.286;2022-12-29T10:02:38;-0.10;99.90
11597;DHT22;5854;48.072;16.286;2022-12-29T10:05:23;0.00;99.90
11597;DHT22;5854;48.072;16.286;2022-12-29T10:08:06;0.00;99.90
11597;DHT22;5854;48.072;16.286;2022-12-29T10:10:45;-0.10;99.90
11597;DHT22;5854;48.072;16.286;2022-12-29T10:13:25;-0.20;99.90
11597;DHT22;5854;48.072;16.286;2022-12-29T10:16:02;0.00;99.90
11597;DHT22;5854;48.072;16.286;2022-12-29T10:18:47;0.20;99.90
11597;DHT22;5854;48.072;16.286;2022-12-29T10:21:26;0.20;99.90
11597;DHT22;5854;48.072;16.286;2022-12-29T10:24:02;0.30;99.90
11597;DHT22;5854;48.072;16.286;2022-12-29T10:26:36;0.10;99.90
11597;DHT22;5854;48.072;16.286;2022-12-29T10:29:06;0.20;99.90
11597;DHT22;5854;48.072;16.286;2022-12-29T10:31:44;0.00;99.90
11597;DHT22;5854;48.072;16.286;2022-12-29T10:34:21;0.10;99.90
11597;DHT22;5854;48.072;16.286;2022-12-29T10:36:52;0.10;99.90
11597;DHT22;5854;48.072;16.286;2022-12-29T10:39:30;0.20;99.90
11597;DHT22;5854;48.072;16.286;2022-12-29T10:42:04;0.30;99.90
11597;DHT22;5854;48.072;16.286;2022-12-29T10:44:36;0.30;99.90
11597;DHT22;5854;48.072;16.286;2022-12-29T10:47:06;0.50;99.90
11597;DHT22;5854;48.072;16.286;2022-12-29T10:49:42;0.60;99.90
11597;DHT22;5854;48.072;16.286;2022-12-29T10:52:11;0.40;99.90
11597;DHT22;5854;48.072;16.286;2022-12-29T10:54:49;0.30;99.90
11597;DHT22;5854;48.072;16.286;2022-12-29T10:57:26;0.30;99.90
11597;DHT22;5854;48.072;16.286;2022-12-29T10:59:54;0.30;99.90
11597;DHT22;5854;48.072;16.286;2022-12-29T11:05:46;0.40;99.90
11597;DHT22;5854;48.072;16.286;2022-12-29T11:08:19;0.60;99.90
11597;DHT22;5854;48.072;16.286;2022-12-29T11:10:58;0.60;99.90
11597;DHT22;5854;48.072;16.286;2022-12-29T11:13:28;0.60;99.90
11597;DHT22;5854;48.072;16.286;2022-12-29T11:15:56;0.60;99.90
11597;DHT22;5854;48.072;16.286;2022-12-29T11:18:26;0.60;99.90
11597;DHT22;5854;48.072;16.286;2022-12-29T11:21:00;0.70;99.90
11597;DHT22;5854;48.072;16.286;2022-12-29T11:23:32;0.70;99.90
11597;DHT22;5854;48.072;16.286;2022-12-29T11:26:14;0.80;99.90
11597;DHT22;5854;48.072;16.286;2022-12-29T11:28:47;0.70;99.90
11597;DHT22;5854;48.072;16.286;2022-12-29T11:31:29;0.70;99.90
11597;DHT22;5854;48.072;16.286;2022-12-29T11:33:57;0.70;99.90
11597;DHT22;5854;48.072;16.286;2022-12-29T11:36:24;0.80;99.90
11597;DHT22;5854;48.072;16.286;2022-12-29T11:38:53;0.90;99.90
11597;DHT22;5854;48.072;16.286;2022-12-29T11:41:24;0.80;99.90
11597;DHT22;5854;48.072;16.286;2022-12-29T11:43:53;0.90;99.90
11597;DHT22;5854;48.072;16.286;2022-12-29T11:46:25;0.80;99.90
11597;DHT22;5854;48.072;16.286;2022-12-29T11:48:54;0.70;99.90
11597;DHT22;5854;48.072;16.286;2022-12-29T11:51:28;0.70;99.90
11597;DHT22;5854;48.072;16.286;2022-12-29T11:53:58;0.90;99.90
11597;DHT22;5854;48.072;16.286;2022-12-29T11:56:35;0.90;99.90
11597;DHT22;5854;48.072;16.286;2022-12-29T12:02:36;0.80;99.90
11597;DHT22;5854;48.072;16.286;2022-12-29T12:05:19;0.80;99.90
11597;DHT22;5854;48.072;16.286;2022-12-29T12:07:52;0.90;99.90
11597;DHT22;5854;48.072;16.286;2022-12-29T12:10:26;1.00;99.90
11597;DHT22;5854;48.072;16.286;2022-12-29T12:13:02;0.90;99.90
11597;DHT22;5854;48.072;16.286;2022-12-29T12:15:39;0.90;99.90
11597;DHT22;5854;48.072;16.286;2022-12-29T12:18:16;0.90;99.90
11597;DHT22;5854;48.072;16.286;2022-12-29T12:20:52;1.00;99.90
11597;DHT22;5854;48.072;16.286;2022-12-29T12:23:36;0.90;99.90
11597;DHT22;5854;48.072;16.286;2022-12-29T12:26:12;0.90;99.90
11597;DHT22;5854;48.072;16.286;2022-12-29T12:28:44;0.90;99.90
11597;DHT22;5854;48.072;16.286;2022-12-29T12:31:25;0.90;99.90
11597;DHT22;5854;48.072;16.286;2022-12-29T12:34:02;0.90;99.90
11597;DHT22;5854;48.072;16.286;2022-12-29T12:36:53;0.90;99.90
11597;DHT22;5854;48.072;16.286;2022-12-29T12:39:27;1.00;99.90
11597;DHT22;5854;48.072;16.286;2022-12-29T12:42:06;1.10;99.90
11597;DHT22;5854;48.072;16.286;2022-12-29T12:44:48;1.10;99.90
11597;DHT22;5854;48.072;16.286;2022-12-29T12:47:44;1.10;99.90
11597;DHT22;5854;48.072;16.286;2022-12-29T12:50:32;1.30;99.90
11597;DHT22;5854;48.072;16.286;2022-12-29T12:53:20;1.40;99.90
11597;DHT22;5854;48.072;16.286;2022-12-29T12:59:14;1.30;99.90
11597;DHT22;5854;48.072;16.286;2022-12-29T13:01:55;1.40;99.90
11597;DHT22;5854;48.072;16.286;2022-12-29T13:04:41;1.40;99.90
11597;DHT22;5854;48.072;16.286;2022-12-29T13:07:37;1.40;99.90
11597;DHT22;5854;48.072;16.286;2022-12-29T13:10:22;1.40;99.90
11597;DHT22;5854;48.072;16.286;2022-12-29T13:13:09;1.40;99.90
11597;DHT22;5854;48.072;16.286;2022-12-29T13:15:54;1.40;99.90
11597;DHT22;5854;48.072;16.286;2022-12-29T13:18:30;1.40;99.90
11597;DHT22;5854;48.072;16.286;2022-12-29T13:21:06;1.40;99.30
11597;DHT22;5854;48.072;16.286;2022-12-29T13:23:44;1.90;99.90
11597;DHT22;5854;48.072;16.286;2022-12-29T13:26:42;1.90;99.90
11597;DHT22;5854;48.072;16.286;2022-12-29T13:29:18;1.90;99.40
11597;DHT22;5854;48.072;16.286;2022-12-29T13:31:54;1.80;98.50
11597;DHT22;5854;48.072;16.286;2022-12-29T13:34:35;1.80;98.40
11597;DHT22;5854;48.072;16.286;2022-12-29T13:37:10;1.80;97.80
11597;DHT22;5854;48.072;16.286;2022-12-29T13:39:42;1.60;99.30
11597;DHT22;5854;48.072;16.286;2022-12-29T13:42:13;1.60;99.90
11597;DHT22;5854;48.072;16.286;2022-12-29T13:44:46;1.70;99.70
11597;DHT22;5854;48.072;16.286;2022-12-29T13:47:21;1.70;99.90
11597;DHT22;5854;48.072;16.286;2022-12-29T13:49:56;1.80;99.40
11597;DHT22;5854;48.072;16.286;2022-12-29T13:52:30;1.90;97.00
11597;DHT22;5854;48.072;16.286;2022-12-29T13:55:20;1.90;95.70
11597;DHT22;5854;48.072;16.286;2022-12-29T13:57:58;2.00;94.10
11597;DHT22;5854;48.072;16.286;2022-12-29T14:00:31;1.90;94.50
11597;DHT22;5854;48.072;16.286;2022-12-29T14:03:17;1.80;95.40
11597;DHT22;5854;48.072;16.286;2022-12-29T14:06:12;1.70;96.00
11597;DHT22;5854;48.072;16.286;2022-12-29T14:08:42;1.70;96.00
11597;DHT22;5854;48.072;16.286;2022-12-29T14:11:11;1.60;96.80
11597;DHT22;5854;48.072;16.286;2022-12-29T14:13:41;1.60;97.20
11597;DHT22;5854;48.072;16.286;2022-12-29T14:16:24;1.60;97.70
11597;DHT22;5854;48.072;16.286;2022-12-29T14:19:09;1.60;99.30
11597;DHT22;5854;48.072;16.286;2022-12-29T14:21:41;1.60;99.60
11597;DHT22;5854;48.072;16.286;2022-12-29T14:24:37;1.50;99.40
11597;DHT22;5854;48.072;16.286;2022-12-29T14:27:43;1.70;97.40
11597;DHT22;5854;48.072;16.286;2022-12-29T14:30:58;1.70;95.40
11597;DHT22;5854;48.072;16.286;2022-12-29T14:33:28;1.70;95.40
11597;DHT22;5854;48.072;16.286;2022-12-29T14:38:49;1.70;95.20
11597;DHT22;5854;48.072;16.286;2022-12-29T14:41:22;1.60;94.80
11597;DHT22;5854;48.072;16.286;2022-12-29T14:44:03;1.60;95.00
11597;DHT22;5854;48.072;16.286;2022-12-29T14:46:57;1.50;93.80
11597;DHT22;5854;48.072;16.286;2022-12-29T14:49:28;1.50;93.40
11597;DHT22;5854;48.072;16.286;2022-12-29T14:52:06;1.40;93.80
11597;DHT22;5854;48.072;16.286;2022-12-29T14:54:50;1.40;94.00
11597;DHT22;5854;48.072;16.286;2022-12-29T14:57:33;1.30;94.00
11597;DHT22;5854;48.072;16.286;2022-12-29T15:00:15;1.20;94.10
11597;DHT22;5854;48.072;16.286;2022-12-29T15:02:47;1.30;94.20
11597;DHT22;5854;48.072;16.286;2022-12-29T15:05:27;1.30;94.10
11597;DHT22;5854;48.072;16.286;2022-12-29T15:07:57;1.30;95.10
11597;DHT22;5854;48.072;16.286;2022-12-29T15:10:30;1.30;96.40
11597;DHT22;5854;48.072;16.286;2022-12-29T15:13:04;1.20;95.80
11597;DHT22;5854;48.072;16.286;2022-12-29T15:15:37;1.20;97.60
11597;DHT22;5854;48.072;16.286;2022-12-29T15:18:14;1.20;97.80
11597;DHT22;5854;48.072;16.286;2022-12-29T15:20:46;1.30;96.50
11597;DHT22;5854;48.072;16.286;2022-12-29T15:23:17;1.20;95.40
11597;DHT22;5854;48.072;16.286;2022-12-29T15:25:50;1.10;94.50
11597;DHT22;5854;48.072;16.286;2022-12-29T15:28:21;1.00;93.70
11597;DHT22;5854;48.072;16.286;2022-12-29T15:30:54;1.00;94.40
11597;DHT22;5854;48.072;16.286;2022-12-29T15:33:25;1.00;94.20
11597;DHT22;5854;48.072;16.286;2022-12-29T15:35:55;1.10;94.20
11597;DHT22;5854;48.072;16.286;2022-12-29T15:38:25;1.10;93.60
11597;DHT22;5854;48.072;16.286;2022-12-29T15:40:58;1.10;93.20
11597;DHT22;5854;48.072;16.286;2022-12-29T15:43:42;1.10;94.00
11597;DHT22;5854;48.072;16.286;2022-12-29T15:46:17;1.20;95.60
11597;DHT22;5854;48.072;16.286;2022-12-29T15:48:44;1.30;95.40
11597;DHT22;5854;48.072;16.286;2022-12-29T15:51:18;1.30;95.50
11597;DHT22;5854;48.072;16.286;2022-12-29T15:53:47;1.40;95.70
11597;DHT22;5854;48.072;16.286;2022-12-29T15:56:17;1.30;94.20
11597;DHT22;5854;48.072;16.286;2022-12-29T15:58:47;1.20;93.50
11597;DHT22;5854;48.072;16.286;2022-12-29T16:01:23;1.40;95.10
11597;DHT22;5854;48.072;16.286;2022-12-29T16:03:53;1.40;93.80
11597;DHT22;5854;48.072;16.286;2022-12-29T16:06:30;1.30;93.80
11597;DHT22;5854;48.072;16.286;2022-12-29T16:09:00;1.20;93.60
11597;DHT22;5854;48.072;16.286;2022-12-29T16:11:34;1.30;93.80
11597;DHT22;5854;48.072;16.286;2022-12-29T16:14:07;1.20;92.80
11597;DHT22;5854;48.072;16.286;2022-12-29T16:16:38;1.00;93.10
11597;DHT22;5854;48.072;16.286;2022-12-29T16:19:12;1.00;93.10
11597;DHT22;5854;48.072;16.286;2022-12-29T16:21:42;1.00;92.80
11597;DHT22;5854;48.072;16.286;2022-12-29T16:24:14;1.00;93.30
11597;DHT22;5854;48.072;16.286;2022-12-29T16:26:48;1.10;95.20
11597;DHT22;5854;48.072;16.286;2022-12-29T16:29:16;1.10;97.10
11597;DHT22;5854;48.072;16.286;2022-12-29T16:31:51;1.10;97.70
11597;DHT22;5854;48.072;16.286;2022-12-29T16:34:29;1.10;98.10
11597;DHT22;5854;48.072;16.286;2022-12-29T16:36:58;1.10;98.60